sensor_id;sensor_type;location;lat;lon;timestamp;temperature;humidity
13186;DHT22;6658;53.080;7.428;2023-11-22T00:02:06;1.70;99.90
13186;DHT22;6658;53.080;7.428;2023-11-22T00:04:31;1.80;99.90
13186;DHT22;6658;53.080;7.428;2023-11-22T00:06:57;2.00;99.90
13186;DHT22;6658;53.080;7.428;2023-11-22T00:09:23;2.00;99.90
13186;DHT22;6658;53.080;7.428;2023-11-22T00:11:49;2.00;99.90
13186;DHT22;6658;53.080;7.428;2023-11-22T00:14:15;1.90;99.90
13186;DHT22;6658;53.080;7.428;2023-11-22T00:16:41;1.90;99.90
13186;DHT22;6658;53.080;7.428;2023-11-22T00:19:06;1.80;99.90
13186;DHT22;6658;53.080;7.428;2023-11-22T00:21:32;1.80;99.90
13186;DHT22;6658;53.080;7.428;2023-11-22T00:23:58;1.80;99.90
13186;DHT22;6658;53.080;7.428;2023-11-22T00:26:24;1.70;99.90
13186;DHT22;6658;53.080;7.428;2023-11-22T00:28:50;1.70;99.90
13186;DHT22;6658;53.080;7.428;2023-11-22T00:31:16;1.60;99.90
13186;DHT22;6658;53.080;7.428;2023-11-22T00:33:41;1.60;99.90
13186;DHT22;6658;53.080;7.428;2023-11-22T00:36:07;1.50;99.90
13186;DHT22;6658;53.080;7.428;2023-11-22T00:38:34;1.50;99.90
13186;DHT22;6658;53.080;7.428;2023-11-22T00:41:05;1.50;99.90
13186;DHT22;6658;53.080;7.428;2023-11-22T00:43:31;1.50;99.90
13186;DHT22;6658;53.080;7.428;2023-11-22T00:45:56;1.50;99.90
13186;DHT22;6658;53.080;7.428;2023-11-22T00:48:22;1.50;99.90
13186;DHT22;6658;53.080;7.428;2023-11-22T00:50:48;1.40;99.90
13186;DHT22;6658;53.080;7.428;2023-11-22T00:53:14;1.40;99.90
13186;DHT22;6658;53.080;7.428;2023-11-22T00:55:40;1.40;99.90
13186;DHT22;6658;53.080;7.428;2023-11-22T00:58:07;1.30;99.90
13186;DHT22;6658;53.080;7.428;2023-11-22T01:00:33;1.30;99.90
13186;DHT22;6658;53.080;7.428;2023-11-22T01:02:59;1.30;99.90
13186;DHT22;6658;53.080;7.428;2023-11-22T01:05:24;1.20;99.90
13186;DHT22;6658;53.080;7.428;2023-11-22T01:07:50;1.20;99.90
13186;DHT22;6658;53.080;7.428;2023-11-22T01:10:16;1.10;99.90
13186;DHT22;6658;53.080;7.428;2023-11-22T01:12:42;1.10;99.90
13186;DHT22;6658;53.080;7.428;2023-11-22T01:15:08;1.20;99.90
13186;DHT22;6658;53.080;7.428;2023-11-22T01:17:34;1.20;99.90
13186;DHT22;6658;53.080;7.428;2023-11-22T01:20:01;1.20;99.90
13186;DHT22;6658;53.080;7.428;2023-11-22T01:22:26;1.30;99.90
13186;DHT22;6658;53.080;7.428;2023-11-22T01:24:53;1.20;99.90
13186;DHT22;6658;53.080;7.428;2023-11-22T01:27:19;1.30;99.90
13186;DHT22;6658;53.080;7.428;2023-11-22T01:29:44;1.20;99.90
13186;DHT22;6658;53.080;7.428;2023-11-22T01:32:11;1.10;99.90
13186;DHT22;6658;53.080;7.428;2023-11-22T01:34:36;1.10;99.90
13186;DHT22;6658;53.080;7.428;2023-11-22T01:37:02;1.00;99.90
13186;DHT22;6658;53.080;7.428;2023-11-22T01:39:28;1.00;99.90
13186;DHT22;6658;53.080;7.428;2023-11-22T01:41:54;1.10;99.90
13186;DHT22;6658;53.080;7.428;2023-11-22T01:44:20;1.20;99.90
13186;DHT22;6658;53.080;7.428;2023-11-22T01:46:45;1.30;99.90
13186;DHT22;6658;53.080;7.428;2023-11-22T01:49:12;1.30;99.90
13186;DHT22;6658;53.080;7.428;2023-11-22T01:51:38;1.30;99.90
13186;DHT22;6658;53.080;7.428;2023-11-22T01:54:06;1.30;99.90
13186;DHT22;6658;53.080;7.428;2023-11-22T01:56:33;1.30;99.90
13186;DHT22;6658;53.080;7.428;2023-11-22T01:59:00;1.30;99.90
13186;DHT22;6658;53.080;7.428;2023-11-22T02:01:26;1.30;99.90
13186;DHT22;6658;53.080;7.428;2023-11-22T02:03:52;1.30;99.90
13186;DHT22;6658;53.080;7.428;2023-11-22T02:06:19;1.40;99.90
13186;DHT22;6658;53.080;7.428;2023-11-22T02:08:47;1.50;99.90
13186;DHT22;6658;53.080;7.428;2023-11-22T02:11:12;1.40;99.90
13186;DHT22;6658;53.080;7.428;2023-11-22T02:13:38;1.40;99.90
13186;DHT22;6658;53.080;7.428;2023-11-22T02:16:04;1.40;99.90
13186;DHT22;6658;53.080;7.428;2023-11-22T02:18:30;1.40;99.90
13186;DHT22;6658;53.080;7.428;2023-11-22T02:20:56;1.50;99.90
13186;DHT22;6658;53.080;7.428;2023-11-22T02:23:22;1.40;99.90
13186;DHT22;6658;53.080;7.428;2023-11-22T02:25:48;1.40;99.90
13186;DHT22;6658;53.080;7.428;2023-11-22T02:28:14;1.20;99.90
13186;DHT22;6658;53.080;7.428;2023-11-22T02:30:40;1.10;99.90
13186;DHT22;6658;53.080;7.428;2023-11-22T02:33:07;1.00;99.90
13186;DHT22;6658;53.080;7.428;2023-11-22T02:35:33;0.90;99.90
13186;DHT22;6658;53.080;7.428;2023-11-22T02:38:01;0.80;99.90
13186;DHT22;6658;53.080;7.428;2023-11-22T02:40:27;0.70;99.90
13186;DHT22;6658;53.080;7.428;2023-11-22T02:42:56;0.70;99.90
13186;DHT22;6658;53.080;7.428;2023-11-22T02:45:28;0.60;99.90
13186;DHT22;6658;53.080;7.428;2023-11-22T02:47:54;0.60;99.90
13186;DHT22;6658;53.080;7.428;2023-11-22T02:50:20;0.50;99.90
13186;DHT22;6658;53.080;7.428;2023-11-22T02:52:46;0.50;99.90
13186;DHT22;6658;53.080;7.428;2023-11-22T02:55:12;0.50;99.90
13186;DHT22;6658;53.080;7.428;2023-11-22T02:57:38;0.40;99.90
13186;DHT22;6658;53.080;7.428;2023-11-22T03:00:08;0.40;99.90
13186;DHT22;6658;53.080;7.428;2023-11-22T03:02:37;0.30;99.90
13186;DHT22;6658;53.080;7.428;2023-11-22T03:05:03;0.30;99.90
13186;DHT22;6658;53.080;7.428;2023-11-22T03:07:29;0.20;99.90
13186;DHT22;6658;53.080;7.428;2023-11-22T03:09:55;0.20;99.90
13186;DHT22;6658;53.080;7.428;2023-11-22T03:12:21;0.20;99.90
13186;DHT22;6658;53.080;7.428;2023-11-22T03:14:47;0.20;99.90
13186;DHT22;6658;53.080;7.428;2023-11-22T03:17:15;0.10;99.90
13186;DHT22;6658;53.080;7.428;2023-11-22T03:19:40;0.10;99.90
13186;DHT22;6658;53.080;7.428;2023-11-22T03:22:06;0.10;99.90
13186;DHT22;6658;53.080;7.428;2023-11-22T03:24:33;0.20;99.90
13186;DHT22;6658;53.080;7.428;2023-11-22T03:27:00;0.20;99.90
13186;DHT22;6658;53.080;7.428;2023-11-22T03:29:26;0.30;99.90
13186;DHT22;6658;53.080;7.428;2023-11-22T03:31:53;0.40;99.90
13186;DHT22;6658;53.080;7.428;2023-11-22T03:34:19;0.40;99.90
13186;DHT22;6658;53.080;7.428;2023-11-22T03:36:45;0.40;99.90
13186;DHT22;6658;53.080;7.428;2023-11-22T03:39:11;0.40;99.90
13186;DHT22;6658;53.080;7.428;2023-11-22T03:41:37;0.30;99.90
13186;DHT22;6658;53.080;7.428;2023-11-22T03:44:03;0.30;99.90
13186;DHT22;6658;53.080;7.428;2023-11-22T03:46:30;0.30;99.90
13186;DHT22;6658;53.080;7.428;2023-11-22T03:48:56;0.40;99.90
13186;DHT22;6658;53.080;7.428;2023-11-22T03:51:22;0.40;99.90
13186;DHT22;6658;53.080;7.428;2023-11-22T03:53:47;0.30;99.90
13186;DHT22;6658;53.080;7.428;2023-11-22T03:56:13;0.30;99.90
13186;DHT22;6658;53.080;7.428;2023-11-22T03:58:40;0.30;99.90
13186;DHT22;6658;53.080;7.428;2023-11-22T04:01:05;0.30;99.90
13186;DHT22;6658;53.080;7.428;2023-11-22T04:03:31;0.30;99.90
13186;DHT22;6658;53.080;7.428;2023-11-22T04:05:57;0.20;99.90
13186;DHT22;6658;53.080;7.428;2023-11-22T04:08:24;0.30;99.90
13186;DHT22;6658;53.080;7.428;2023-11-22T04:10:50;0.20;99.90
13186;DHT22;6658;53.080;7.428;2023-11-22T04:13:16;0.30;99.90
13186;DHT22;6658;53.080;7.428;2023-11-22T04:15:42;0.30;99.90
13186;DHT22;6658;53.080;7.428;2023-11-22T04:18:08;0.40;99.90
13186;DHT22;6658;53.080;7.428;2023-11-22T04:20:34;0.40;99.90
13186;DHT22;6658;53.080;7.428;2023-11-22T04:23:00;0.60;99.90
13186;DHT22;6658;53.080;7.428;2023-11-22T04:25:26;0.60;99.90
13186;DHT22;6658;53.080;7.428;2023-11-22T04:27:52;0.60;99.90
13186;DHT22;6658;53.080;7.428;2023-11-22T04:30:18;0.60;99.90
13186;DHT22;6658;53.080;7.428;2023-11-22T04:32:44;0.60;99.90
13186;DHT22;6658;53.080;7.428;2023-11-22T04:35:10;0.50;99.90
13186;DHT22;6658;53.080;7.428;2023-11-22T04:37:36;0.50;99.90
13186;DHT22;6658;53.080;7.428;2023-11-22T04:40:02;0.40;99.90
13186;DHT22;6658;53.080;7.428;2023-11-22T04:42:30;0.30;99.90
13186;DHT22;6658;53.080;7.428;2023-11-22T04:44:56;0.30;99.90
13186;DHT22;6658;53.080;7.428;2023-11-22T04:47:21;0.20;99.90
13186;DHT22;6658;53.080;7.428;2023-11-22T04:49:48;0.10;99.90
13186;DHT22;6658;53.080;7.428;2023-11-22T04:52:14;0.10;99.90
13186;DHT22;6658;53.080;7.428;2023-11-22T04:54:40;0.10;99.90
13186;DHT22;6658;53.080;7.428;2023-11-22T04:57:07;0.10;99.90
13186;DHT22;6658;53.080;7.428;2023-11-22T04:59:33;0.10;99.90
13186;DHT22;6658;53.080;7.428;2023-11-22T05:01:58;0.10;99.90
13186;DHT22;6658;53.080;7.428;2023-11-22T05:04:24;0.20;99.90
13186;DHT22;6658;53.080;7.428;2023-11-22T05:06:53;0.30;99.90
13186;DHT22;6658;53.080;7.428;2023-11-22T05:09:18;0.30;99.90
13186;DHT22;6658;53.080;7.428;2023-11-22T05:11:44;0.30;99.90
13186;DHT22;6658;53.080;7.428;2023-11-22T05:14:10;0.30;99.90
13186;DHT22;6658;53.080;7.428;2023-11-22T05:16:36;0.30;99.90
13186;DHT22;6658;53.080;7.428;2023-11-22T05:19:02;0.30;99.90
13186;DHT22;6658;53.080;7.428;2023-11-22T05:21:27;0.40;99.90
13186;DHT22;6658;53.080;7.428;2023-11-22T05:23:53;0.40;99.90
13186;DHT22;6658;53.080;7.428;2023-11-22T05:26:20;0.50;99.90
13186;DHT22;6658;53.080;7.428;2023-11-22T05:28:47;0.50;99.90
13186;DHT22;6658;53.080;7.428;2023-11-22T05:31:13;0.60;99.90
13186;DHT22;6658;53.080;7.428;2023-11-22T05:33:39;0.60;99.90
13186;DHT22;6658;53.080;7.428;2023-11-22T05:36:08;0.50;99.90
13186;DHT22;6658;53.080;7.428;2023-11-22T05:38:34;0.40;99.90
13186;DHT22;6658;53.080;7.428;2023-11-22T05:41:01;0.30;99.90
13186;DHT22;6658;53.080;7.428;2023-11-22T05:43:26;0.30;99.90
13186;DHT22;6658;53.080;7.428;2023-11-22T05:45:53;0.20;99.90
13186;DHT22;6658;53.080;7.428;2023-11-22T05:48:18;0.20;99.90
13186;DHT22;6658;53.080;7.428;2023-11-22T05:50:45;0.20;99.90
13186;DHT22;6658;53.080;7.428;2023-11-22T05:53:11;0.20;99.90
13186;DHT22;6658;53.080;7.428;2023-11-22T05:55:37;0.20;99.90
13186;DHT22;6658;53.080;7.428;2023-11-22T05:58:03;0.10;99.90
13186;DHT22;6658;53.080;7.428;2023-11-22T06:00:29;0.10;99.90
13186;DHT22;6658;53.080;7.428;2023-11-22T06:02:55;0.10;99.90
13186;DHT22;6658;53.080;7.428;2023-11-22T06:05:21;0.10;99.90
13186;DHT22;6658;53.080;7.428;2023-11-22T06:07:47;0.10;99.90
13186;DHT22;6658;53.080;7.428;2023-11-22T06:10:13;0.20;99.90
13186;DHT22;6658;53.080;7.428;2023-11-22T06:12:40;0.20;99.90
13186;DHT22;6658;53.080;7.428;2023-11-22T06:15:06;0.20;99.90
13186;DHT22;6658;53.080;7.428;2023-11-22T06:17:32;0.30;99.90
13186;DHT22;6658;53.080;7.428;2023-11-22T06:19:57;0.30;99.90
13186;DHT22;6658;53.080;7.428;2023-11-22T06:22:23;0.40;99.90
13186;DHT22;6658;53.080;7.428;2023-11-22T06:24:49;0.40;99.90
13186;DHT22;6658;53.080;7.428;2023-11-22T06:27:14;0.50;99.90
13186;DHT22;6658;53.080;7.428;2023-11-22T06:29:43;0.50;99.90
13186;DHT22;6658;53.080;7.428;2023-11-22T06:32:12;0.50;99.90
13186;DHT22;6658;53.080;7.428;2023-11-22T06:34:38;0.60;99.90
13186;DHT22;6658;53.080;7.428;2023-11-22T06:37:04;0.60;99.90
13186;DHT22;6658;53.080;7.428;2023-11-22T06:39:30;0.60;99.90
13186;DHT22;6658;53.080;7.428;2023-11-22T06:41:56;0.70;99.90
13186;DHT22;6658;53.080;7.428;2023-11-22T06:44:21;0.70;99.90
13186;DHT22;6658;53.080;7.428;2023-11-22T06:46:48;0.70;99.90
13186;DHT22;6658;53.080;7.428;2023-11-22T06:49:13;0.70;99.90
13186;DHT22;6658;53.080;7.428;2023-11-22T06:51:40;0.70;99.90
13186;DHT22;6658;53.080;7.428;2023-11-22T06:54:05;0.70;99.90
13186;DHT22;6658;53.080;7.428;2023-11-22T06:56:32;0.70;99.90
13186;DHT22;6658;53.080;7.428;2023-11-22T06:58:58;0.60;99.90
13186;DHT22;6658;53.080;7.428;2023-11-22T07:01:24;0.70;99.90
13186;DHT22;6658;53.080;7.428;2023-11-22T07:03:51;0.60;99.90
13186;DHT22;6658;53.080;7.428;2023-11-22T07:06:17;0.70;99.90
13186;DHT22;6658;53.080;7.428;2023-11-22T07:08:44;0.70;99.90
13186;DHT22;6658;53.080;7.428;2023-11-22T07:11:11;0.60;99.90
13186;DHT22;6658;53.080;7.428;2023-11-22T07:13:36;0.60;99.90
13186;DHT22;6658;53.080;7.428;2023-11-22T07:16:05;0.70;99.90
13186;DHT22;6658;53.080;7.428;2023-11-22T07:18:32;0.70;99.90
13186;DHT22;6658;53.080;7.428;2023-11-22T07:20:59;0.70;99.90
13186;DHT22;6658;53.080;7.428;2023-11-22T07:23:25;0.70;99.90
13186;DHT22;6658;53.080;7.428;2023-11-22T07:25:54;0.80;99.90
13186;DHT22;6658;53.080;7.428;2023-11-22T07:28:20;0.80;99.90
13186;DHT22;6658;53.080;7.428;2023-11-22T07:30:46;0.80;99.90
13186;DHT22;6658;53.080;7.428;2023-11-22T07:33:14;0.90;99.90
13186;DHT22;6658;53.080;7.428;2023-11-22T07:35:40;0.90;99.90
13186;DHT22;6658;53.080;7.428;2023-11-22T07:38:06;1.00;99.90
13186;DHT22;6658;53.080;7.428;2023-11-22T07:40:34;1.00;99.90
13186;DHT22;6658;53.080;7.428;2023-11-22T07:43:00;1.10;99.90
13186;DHT22;6658;53.080;7.428;2023-11-22T07:45:28;1.10;99.90
13186;DHT22;6658;53.080;7.428;2023-11-22T07:47:54;1.10;99.90
13186;DHT22;6658;53.080;7.428;2023-11-22T07:50:23;1.20;99.90
13186;DHT22;6658;53.080;7.428;2023-11-22T07:52:50;1.30;99.90
13186;DHT22;6658;53.080;7.428;2023-11-22T07:55:16;1.30;99.90
13186;DHT22;6658;53.080;7.428;2023-11-22T07:57:44;1.40;99.90
13186;DHT22;6658;53.080;7.428;2023-11-22T08:00:10;1.50;99.90
13186;DHT22;6658;53.080;7.428;2023-11-22T08:02:37;1.60;99.90
13186;DHT22;6658;53.080;7.428;2023-11-22T08:05:08;1.60;99.90
13186;DHT22;6658;53.080;7.428;2023-11-22T08:07:35;1.70;99.90
13186;DHT22;6658;53.080;7.428;2023-11-22T08:10:04;1.80;99.90
13186;DHT22;6658;53.080;7.428;2023-11-22T08:12:35;1.80;99.90
13186;DHT22;6658;53.080;7.428;2023-11-22T08:15:02;1.90;99.90
13186;DHT22;6658;53.080;7.428;2023-11-22T08:17:29;2.00;99.90
13186;DHT22;6658;53.080;7.428;2023-11-22T08:19:54;2.00;99.90
13186;DHT22;6658;53.080;7.428;2023-11-22T08:22:21;2.00;99.90
13186;DHT22;6658;53.080;7.428;2023-11-22T08:24:46;2.00;99.90
13186;DHT22;6658;53.080;7.428;2023-11-22T08:27:13;2.10;99.90
13186;DHT22;6658;53.080;7.428;2023-11-22T08:29:41;2.10;99.90
13186;DHT22;6658;53.080;7.428;2023-11-22T08:32:07;2.20;99.90
13186;DHT22;6658;53.080;7.428;2023-11-22T08:34:33;2.20;99.90
13186;DHT22;6658;53.080;7.428;2023-11-22T08:36:59;2.30;99.90
13186;DHT22;6658;53.080;7.428;2023-11-22T08:39:25;2.30;99.90
13186;DHT22;6658;53.080;7.428;2023-11-22T08:41:50;2.40;99.90
13186;DHT22;6658;53.080;7.428;2023-11-22T08:44:16;2.40;99.90
13186;DHT22;6658;53.080;7.428;2023-11-22T08:46:42;2.50;99.90
13186;DHT22;6658;53.080;7.428;2023-11-22T08:49:07;2.60;99.90
13186;DHT22;6658;53.080;7.428;2023-11-22T08:51:33;2.60;99.90
13186;DHT22;6658;53.080;7.428;2023-11-22T08:53:59;2.70;99.90
13186;DHT22;6658;53.080;7.428;2023-11-22T08:56:25;2.80;99.90
13186;DHT22;6658;53.080;7.428;2023-11-22T08:58:51;2.80;99.90
13186;DHT22;6658;53.080;7.428;2023-11-22T09:01:17;2.90;99.90
13186;DHT22;6658;53.080;7.428;2023-11-22T09:03:44;3.00;99.90
13186;DHT22;6658;53.080;7.428;2023-11-22T09:06:09;3.00;99.90
13186;DHT22;6658;53.080;7.428;2023-11-22T09:08:35;3.10;99.90
13186;DHT22;6658;53.080;7.428;2023-11-22T09:11:02;3.10;99.90
13186;DHT22;6658;53.080;7.428;2023-11-22T09:13:31;3.20;99.90
13186;DHT22;6658;53.080;7.428;2023-11-22T09:15:57;3.30;99.90
13186;DHT22;6658;53.080;7.428;2023-11-22T09:18:22;3.40;99.90
13186;DHT22;6658;53.080;7.428;2023-11-22T09:20:48;3.40;99.90
13186;DHT22;6658;53.080;7.428;2023-11-22T09:23:14;3.50;99.90
13186;DHT22;6658;53.080;7.428;2023-11-22T09:25:40;3.50;99.90
13186;DHT22;6658;53.080;7.428;2023-11-22T09:28:06;3.60;99.90
13186;DHT22;6658;53.080;7.428;2023-11-22T09:30:34;3.60;99.90
13186;DHT22;6658;53.080;7.428;2023-11-22T09:33:18;3.70;99.90
13186;DHT22;6658;53.080;7.428;2023-11-22T09:35:46;3.70;99.90
13186;DHT22;6658;53.080;7.428;2023-11-22T09:38:13;3.80;99.90
13186;DHT22;6658;53.080;7.428;2023-11-22T09:43:05;3.90;99.90
13186;DHT22;6658;53.080;7.428;2023-11-22T09:45:31;3.90;99.90
13186;DHT22;6658;53.080;7.428;2023-11-22T09:47:57;4.00;99.90
13186;DHT22;6658;53.080;7.428;2023-11-22T09:52:52;4.10;99.90
13186;DHT22;6658;53.080;7.428;2023-11-22T09:55:24;4.20;99.90
13186;DHT22;6658;53.080;7.428;2023-11-22T09:57:53;4.20;99.90
13186;DHT22;6658;53.080;7.428;2023-11-22T10:00:20;4.30;99.90
13186;DHT22;6658;53.080;7.428;2023-11-22T10:02:47;4.30;99.90
13186;DHT22;6658;53.080;7.428;2023-11-22T10:05:13;4.30;99.90
13186;DHT22;6658;53.080;7.428;2023-11-22T10:07:39;4.30;99.90
13186;DHT22;6658;53.080;7.428;2023-11-22T10:10:05;4.30;99.90
13186;DHT22;6658;53.080;7.428;2023-11-22T10:12:32;4.40;99.90
13186;DHT22;6658;53.080;7.428;2023-11-22T10:15:27;4.40;99.90
13186;DHT22;6658;53.080;7.428;2023-11-22T10:17:57;4.40;99.90
13186;DHT22;6658;53.080;7.428;2023-11-22T10:20:42;4.50;99.90
13186;DHT22;6658;53.080;7.428;2023-11-22T10:23:13;4.50;99.90
13186;DHT22;6658;53.080;7.428;2023-11-22T10:25:49;4.50;99.90
13186;DHT22;6658;53.080;7.428;2023-11-22T10:28:18;4.60;99.90
13186;DHT22;6658;53.080;7.428;2023-11-22T10:30:49;4.60;99.90
13186;DHT22;6658;53.080;7.428;2023-11-22T10:33:15;4.70;99.90
13186;DHT22;6658;53.080;7.428;2023-11-22T10:35:45;4.80;99.90
13186;DHT22;6658;53.080;7.428;2023-11-22T10:38:15;4.90;99.90
13186;DHT22;6658;53.080;7.428;2023-11-22T10:40:41;5.00;99.90
13186;DHT22;6658;53.080;7.428;2023-11-22T10:43:11;5.00;99.90
13186;DHT22;6658;53.080;7.428;2023-11-22T10:45:37;5.10;99.90
13186;DHT22;6658;53.080;7.428;2023-11-22T10:48:04;5.10;99.90
13186;DHT22;6658;53.080;7.428;2023-11-22T10:50:31;5.20;99.90
13186;DHT22;6658;53.080;7.428;2023-11-22T10:52:58;5.20;99.90
13186;DHT22;6658;53.080;7.428;2023-11-22T10:55:32;5.30;99.90
13186;DHT22;6658;53.080;7.428;2023-11-22T10:58:06;5.30;99.90
13186;DHT22;6658;53.080;7.428;2023-11-22T11:00:32;5.40;99.90
13186;DHT22;6658;53.080;7.428;2023-11-22T11:03:08;5.30;99.90
13186;DHT22;6658;53.080;7.428;2023-11-22T11:05:37;5.20;99.90
13186;DHT22;6658;53.080;7.428;2023-11-22T11:08:12;5.20;99.90
13186;DHT22;6658;53.080;7.428;2023-11-22T11:10:45;5.10;99.90
13186;DHT22;6658;53.080;7.428;2023-11-22T11:13:11;5.00;99.90
13186;DHT22;6658;53.080;7.428;2023-11-22T11:15:39;5.00;99.90
13186;DHT22;6658;53.080;7.428;2023-11-22T11:18:10;5.00;99.90
13186;DHT22;6658;53.080;7.428;2023-11-22T11:20:55;4.90;99.90
13186;DHT22;6658;53.080;7.428;2023-11-22T11:23:23;4.90;99.90
13186;DHT22;6658;53.080;7.428;2023-11-22T11:28:21;5.00;99.90
13186;DHT22;6658;53.080;7.428;2023-11-22T11:30:48;5.10;99.90
13186;DHT22;6658;53.080;7.428;2023-11-22T11:33:17;5.20;99.90
13186;DHT22;6658;53.080;7.428;2023-11-22T11:35:47;5.20;99.90
13186;DHT22;6658;53.080;7.428;2023-11-22T11:38:15;5.30;99.90
13186;DHT22;6658;53.080;7.428;2023-11-22T11:40:41;5.40;99.90
13186;DHT22;6658;53.080;7.428;2023-11-22T11:43:09;5.50;99.90
13186;DHT22;6658;53.080;7.428;2023-11-22T11:45:40;5.50;99.90
13186;DHT22;6658;53.080;7.428;2023-11-22T11:48:14;5.60;99.90
13186;DHT22;6658;53.080;7.428;2023-11-22T11:50:40;5.70;99.90
13186;DHT22;6658;53.080;7.428;2023-11-22T11:53:07;5.80;99.90
13186;DHT22;6658;53.080;7.428;2023-11-22T11:55:32;5.90;99.90
13186;DHT22;6658;53.080;7.428;2023-11-22T11:58:05;6.00;99.90
13186;DHT22;6658;53.080;7.428;2023-11-22T12:00:33;6.20;99.90
13186;DHT22;6658;53.080;7.428;2023-11-22T12:02:59;6.30;99.90
13186;DHT22;6658;53.080;7.428;2023-11-22T12:05:25;6.40;99.90
13186;DHT22;6658;53.080;7.428;2023-11-22T12:07:51;6.40;99.90
13186;DHT22;6658;53.080;7.428;2023-11-22T12:10:17;6.50;99.90
13186;DHT22;6658;53.080;7.428;2023-11-22T12:12:43;6.50;99.90
13186;DHT22;6658;53.080;7.428;2023-11-22T12:15:11;6.60;99.90
13186;DHT22;6658;53.080;7.428;2023-11-22T12:17:37;6.60;99.90
13186;DHT22;6658;53.080;7.428;2023-11-22T12:20:13;6.60;99.90
13186;DHT22;6658;53.080;7.428;2023-11-22T12:22:40;6.60;99.90
13186;DHT22;6658;53.080;7.428;2023-11-22T12:25:07;6.60;99.90
13186;DHT22;6658;53.080;7.428;2023-11-22T12:27:33;6.60;99.90
13186;DHT22;6658;53.080;7.428;2023-11-22T12:29:58;6.50;99.90
13186;DHT22;6658;53.080;7.428;2023-11-22T12:32:25;6.40;99.90
13186;DHT22;6658;53.080;7.428;2023-11-22T12:34:51;6.40;99.90
13186;DHT22;6658;53.080;7.428;2023-11-22T12:37:22;6.40;99.90
13186;DHT22;6658;53.080;7.428;2023-11-22T12:39:48;6.30;99.90
13186;DHT22;6658;53.080;7.428;2023-11-22T12:42:14;6.20;99.90
13186;DHT22;6658;53.080;7.428;2023-11-22T12:44:50;6.20;99.90
13186;DHT22;6658;53.080;7.428;2023-11-22T12:47:45;6.20;99.90
13186;DHT22;6658;53.080;7.428;2023-11-22T12:50:32;6.10;99.90
13186;DHT22;6658;53.080;7.428;2023-11-22T12:53:11;6.10;99.90
13186;DHT22;6658;53.080;7.428;2023-11-22T12:55:44;6.10;99.90
13186;DHT22;6658;53.080;7.428;2023-11-22T12:58:10;6.00;99.90
13186;DHT22;6658;53.080;7.428;2023-11-22T13:00:37;6.00;99.90
13186;DHT22;6658;53.080;7.428;2023-11-22T13:03:08;6.00;99.90
13186;DHT22;6658;53.080;7.428;2023-11-22T13:05:36;6.00;99.90
13186;DHT22;6658;53.080;7.428;2023-11-22T13:08:02;6.00;99.90
13186;DHT22;6658;53.080;7.428;2023-11-22T13:10:29;6.00;99.90
13186;DHT22;6658;53.080;7.428;2023-11-22T13:12:56;6.00;99.90
13186;DHT22;6658;53.080;7.428;2023-11-22T13:15:23;6.00;99.90
13186;DHT22;6658;53.080;7.428;2023-11-22T13:17:50;5.90;99.90
13186;DHT22;6658;53.080;7.428;2023-11-22T13:20:16;5.90;99.90
13186;DHT22;6658;53.080;7.428;2023-11-22T13:22:44;5.90;99.90
13186;DHT22;6658;53.080;7.428;2023-11-22T13:25:12;5.90;99.90
13186;DHT22;6658;53.080;7.428;2023-11-22T13:27:47;5.90;99.90
13186;DHT22;6658;53.080;7.428;2023-11-22T13:30:14;5.90;99.90
13186;DHT22;6658;53.080;7.428;2023-11-22T13:32:40;5.80;99.90
13186;DHT22;6658;53.080;7.428;2023-11-22T13:35:08;5.80;99.90
13186;DHT22;6658;53.080;7.428;2023-11-22T13:37:47;5.90;99.90
13186;DHT22;6658;53.080;7.428;2023-11-22T13:40:16;5.90;99.90
13186;DHT22;6658;53.080;7.428;2023-11-22T13:42:46;5.90;99.90
13186;DHT22;6658;53.080;7.428;2023-11-22T13:45:14;5.90;99.90
13186;DHT22;6658;53.080;7.428;2023-11-22T13:47:47;5.80;99.90
13186;DHT22;6658;53.080;7.428;2023-11-22T13:50:14;5.80;99.90
13186;DHT22;6658;53.080;7.428;2023-11-22T13:52:46;5.80;99.90
13186;DHT22;6658;53.080;7.428;2023-11-22T13:55:12;5.70;99.90
13186;DHT22;6658;53.080;7.428;2023-11-22T13:57:38;5.70;99.90
13186;DHT22;6658;53.080;7.428;2023-11-22T14:00:06;5.70;99.90
13186;DHT22;6658;53.080;7.428;2023-11-22T14:02:35;5.80;99.90
13186;DHT22;6658;53.080;7.428;2023-11-22T14:05:02;5.80;99.90
13186;DHT22;6658;53.080;7.428;2023-11-22T14:07:28;5.80;99.90
13186;DHT22;6658;53.080;7.428;2023-11-22T14:09:54;5.80;99.90
13186;DHT22;6658;53.080;7.428;2023-11-22T14:12:20;5.70;99.90
13186;DHT22;6658;53.080;7.428;2023-11-22T14:14:46;5.70;99.90
13186;DHT22;6658;53.080;7.428;2023-11-22T14:17:12;5.70;99.90
13186;DHT22;6658;53.080;7.428;2023-11-22T14:19:39;5.70;99.90
13186;DHT22;6658;53.080;7.428;2023-11-22T14:22:05;5.60;99.90
13186;DHT22;6658;53.080;7.428;2023-11-22T14:24:31;5.70;99.90
13186;DHT22;6658;53.080;7.428;2023-11-22T14:27:02;5.70;99.90
13186;DHT22;6658;53.080;7.428;2023-11-22T14:29:28;5.70;99.90
13186;DHT22;6658;53.080;7.428;2023-11-22T14:31:54;5.60;99.90
13186;DHT22;6658;53.080;7.428;2023-11-22T14:34:19;5.60;99.90
13186;DHT22;6658;53.080;7.428;2023-11-22T14:36:46;5.60;99.90
13186;DHT22;6658;53.080;7.428;2023-11-22T14:39:11;5.60;99.90
13186;DHT22;6658;53.080;7.428;2023-11-22T14:41:38;5.60;99.90
13186;DHT22;6658;53.080;7.428;2023-11-22T14:44:03;5.60;99.90
13186;DHT22;6658;53.080;7.428;2023-11-22T14:46:30;5.60;99.90
13186;DHT22;6658;53.080;7.428;2023-11-22T14:48:56;5.60;99.90
13186;DHT22;6658;53.080;7.428;2023-11-22T14:51:21;5.60;99.90
13186;DHT22;6658;53.080;7.428;2023-11-22T14:53:47;5.60;99.90
13186;DHT22;6658;53.080;7.428;2023-11-22T14:56:13;5.60;99.90
13186;DHT22;6658;53.080;7.428;2023-11-22T14:58:39;5.60;99.90
13186;DHT22;6658;53.080;7.428;2023-11-22T15:01:05;5.50;99.90
13186;DHT22;6658;53.080;7.428;2023-11-22T15:03:31;5.60;99.90
13186;DHT22;6658;53.080;7.428;2023-11-22T15:05:58;5.60;99.90
13186;DHT22;6658;53.080;7.428;2023-11-22T15:08:24;5.50;99.90
13186;DHT22;6658;53.080;7.428;2023-11-22T15:10:54;5.50;99.90
13186;DHT22;6658;53.080;7.428;2023-11-22T15:13:20;5.50;99.90
13186;DHT22;6658;53.080;7.428;2023-11-22T15:15:46;5.40;99.90
13186;DHT22;6658;53.080;7.428;2023-11-22T15:18:12;5.40;99.90
13186;DHT22;6658;53.080;7.428;2023-11-22T15:20:38;5.30;99.90
13186;DHT22;6658;53.080;7.428;2023-11-22T15:23:04;5.30;99.90
13186;DHT22;6658;53.080;7.428;2023-11-22T15:25:31;5.30;99.90
13186;DHT22;6658;53.080;7.428;2023-11-22T15:27:57;5.30;99.90
13186;DHT22;6658;53.080;7.428;2023-11-22T15:30:25;5.30;99.90
13186;DHT22;6658;53.080;7.428;2023-11-22T15:32:50;5.20;99.90
13186;DHT22;6658;53.080;7.428;2023-11-22T15:35:16;5.20;99.90
13186;DHT22;6658;53.080;7.428;2023-11-22T15:37:43;5.30;99.90
13186;DHT22;6658;53.080;7.428;2023-11-22T15:40:09;5.30;99.90
13186;DHT22;6658;53.080;7.428;2023-11-22T15:42:38;5.20;99.90
13186;DHT22;6658;53.080;7.428;2023-11-22T15:45:06;5.30;99.90
13186;DHT22;6658;53.080;7.428;2023-11-22T15:47:32;5.20;99.90
13186;DHT22;6658;53.080;7.428;2023-11-22T15:49:58;5.20;99.90
13186;DHT22;6658;53.080;7.428;2023-11-22T15:52:24;5.20;99.90
13186;DHT22;6658;53.080;7.428;2023-11-22T15:54:49;5.20;99.90
13186;DHT22;6658;53.080;7.428;2023-11-22T15:57:15;5.20;99.90
13186;DHT22;6658;53.080;7.428;2023-11-22T15:59:41;5.20;99.90
13186;DHT22;6658;53.080;7.428;2023-11-22T16:02:07;5.20;99.90
13186;DHT22;6658;53.080;7.428;2023-11-22T16:04:33;5.20;99.90
13186;DHT22;6658;53.080;7.428;2023-11-22T16:06:59;5.20;99.90
13186;DHT22;6658;53.080;7.428;2023-11-22T16:09:25;5.20;99.90